sensor_id;sensor_type;location;lat;lon;timestamp;temperature;humidity
13898;DHT22;7019;50.766;4.474;2022-12-29T00:01:31;10.50;99.90
13898;DHT22;7019;50.766;4.474;2022-12-29T00:03:58;10.50;99.90
13898;DHT22;7019;50.766;4.474;2022-12-29T00:06:26;10.60;99.90
13898;DHT22;7019;50.766;4.474;2022-12-29T00:08:53;10.50;99.90
13898;DHT22;7019;50.766;4.474;2022-12-29T00:11:22;10.50;99.90
13898;DHT22;7019;50.766;4.474;2022-12-29T00:13:51;10.50;99.90
13898;DHT22;7019;50.766;4.474;2022-12-29T00:16:36;10.50;99.90
13898;DHT22;7019;50.766;4.474;2022-12-29T00:19:05;10.50;99.90
13898;DHT22;7019;50.766;4.474;2022-12-29T00:21:32;10.50;99.90
13898;DHT22;7019;50.766;4.474;2022-12-29T00:24:18;10.50;99.90
13898;DHT22;7019;50.766;4.474;2022-12-29T00:27:11;10.50;99.90
13898;DHT22;7019;50.766;4.474;2022-12-29T00:29:58;10.60;99.90
13898;DHT22;7019;50.766;4.474;2022-12-29T00:32:42;10.50;99.90
13898;DHT22;7019;50.766;4.474;2022-12-29T00:35:28;10.60;99.90
13898;DHT22;7019;50.766;4.474;2022-12-29T00:37:58;10.60;99.90
13898;DHT22;7019;50.766;4.474;2022-12-29T00:40:43;10.60;99.90
13898;DHT22;7019;50.766;4.474;2022-12-29T00:43:28;10.50;99.90
13898;DHT22;7019;50.766;4.474;2022-12-29T00:46:13;10.40;99.90
13898;DHT22;7019;50.766;4.474;2022-12-29T00:48:41;10.50;99.90
13898;DHT22;7019;50.766;4.474;2022-12-29T00:51:25;10.50;99.90
13898;DHT22;7019;50.766;4.474;2022-12-29T00:53:52;10.50;99.90
13898;DHT22;7019;50.766;4.474;2022-12-29T00:56:19;10.60;99.90
13898;DHT22;7019;50.766;4.474;2022-12-29T00:58:46;10.60;99.90
13898;DHT22;7019;50.766;4.474;2022-12-29T01:01:15;10.60;99.90
13898;DHT22;7019;50.766;4.474;2022-12-29T01:03:42;10.60;99.90
13898;DHT22;7019;50.766;4.474;2022-12-29T01:06:11;10.60;99.90
13898;DHT22;7019;50.766;4.474;2022-12-29T01:08:38;10.60;99.90
13898;DHT22;7019;50.766;4.474;2022-12-29T01:11:07;10.50;99.90
13898;DHT22;7019;50.766;4.474;2022-12-29T01:13:34;10.50;99.90
13898;DHT22;7019;50.766;4.474;2022-12-29T01:16:01;10.50;99.90
13898;DHT22;7019;50.766;4.474;2022-12-29T01:18:30;10.50;99.90
13898;DHT22;7019;50.766;4.474;2022-12-29T01:21:00;10.40;99.90
13898;DHT22;7019;50.766;4.474;2022-12-29T01:23:28;10.30;99.90
13898;DHT22;7019;50.766;4.474;2022-12-29T01:25:55;10.20;99.90
13898;DHT22;7019;50.766;4.474;2022-12-29T01:28:22;10.20;99.90
13898;DHT22;7019;50.766;4.474;2022-12-29T01:30:49;10.10;99.90
13898;DHT22;7019;50.766;4.474;2022-12-29T01:33:16;10.10;99.90
13898;DHT22;7019;50.766;4.474;2022-12-29T01:35:45;10.10;99.90
13898;DHT22;7019;50.766;4.474;2022-12-29T01:38:12;10.00;99.90
13898;DHT22;7019;50.766;4.474;2022-12-29T01:40:45;10.00;99.90
13898;DHT22;7019;50.766;4.474;2022-12-29T01:43:13;9.90;99.90
13898;DHT22;7019;50.766;4.474;2022-12-29T01:45:45;9.90;99.90
13898;DHT22;7019;50.766;4.474;2022-12-29T01:48:15;9.90;99.90
13898;DHT22;7019;50.766;4.474;2022-12-29T01:50:49;9.90;99.90
13898;DHT22;7019;50.766;4.474;2022-12-29T01:53:19;9.90;99.90
13898;DHT22;7019;50.766;4.474;2022-12-29T01:55:50;9.80;99.90
13898;DHT22;7019;50.766;4.474;2022-12-29T01:58:20;9.90;99.90
13898;DHT22;7019;50.766;4.474;2022-12-29T02:00:48;9.80;99.90
13898;DHT22;7019;50.766;4.474;2022-12-29T02:03:16;9.80;99.90
13898;DHT22;7019;50.766;4.474;2022-12-29T02:05:50;9.80;99.90
13898;DHT22;7019;50.766;4.474;2022-12-29T02:08:19;9.80;99.90
13898;DHT22;7019;50.766;4.474;2022-12-29T02:10:47;9.80;99.90
13898;DHT22;7019;50.766;4.474;2022-12-29T02:13:15;9.80;99.90
13898;DHT22;7019;50.766;4.474;2022-12-29T02:15:51;9.70;99.90
13898;DHT22;7019;50.766;4.474;2022-12-29T02:18:32;9.70;99.90
13898;DHT22;7019;50.766;4.474;2022-12-29T02:21:34;9.70;99.90
13898;DHT22;7019;50.766;4.474;2022-12-29T02:27:36;9.70;99.90
13898;DHT22;7019;50.766;4.474;2022-12-29T02:30:15;9.70;99.90
13898;DHT22;7019;50.766;4.474;2022-12-29T02:32:56;9.70;99.90
13898;DHT22;7019;50.766;4.474;2022-12-29T02:35:31;9.70;99.90
13898;DHT22;7019;50.766;4.474;2022-12-29T02:38:04;9.70;99.90
13898;DHT22;7019;50.766;4.474;2022-12-29T02:40:39;9.80;99.90
13898;DHT22;7019;50.766;4.474;2022-12-29T02:43:17;9.80;99.90
13898;DHT22;7019;50.766;4.474;2022-12-29T02:45:49;9.80;99.90
13898;DHT22;7019;50.766;4.474;2022-12-29T02:48:24;9.80;99.90
13898;DHT22;7019;50.766;4.474;2022-12-29T02:50:57;9.80;99.90
13898;DHT22;7019;50.766;4.474;2022-12-29T02:53:26;9.80;99.90
13898;DHT22;7019;50.766;4.474;2022-12-29T02:56:12;9.90;99.90
13898;DHT22;7019;50.766;4.474;2022-12-29T02:58:39;9.80;99.90
13898;DHT22;7019;50.766;4.474;2022-12-29T03:01:21;9.80;99.90
13898;DHT22;7019;50.766;4.474;2022-12-29T03:04:18;9.80;99.90
13898;DHT22;7019;50.766;4.474;2022-12-29T03:06:55;9.70;99.90
13898;DHT22;7019;50.766;4.474;2022-12-29T03:09:31;9.60;99.90
13898;DHT22;7019;50.766;4.474;2022-12-29T03:12:12;9.60;99.90
13898;DHT22;7019;50.766;4.474;2022-12-29T03:14:58;9.60;99.90
13898;DHT22;7019;50.766;4.474;2022-12-29T03:17:51;9.50;99.90
13898;DHT22;7019;50.766;4.474;2022-12-29T03:20:23;9.50;99.90
13898;DHT22;7019;50.766;4.474;2022-12-29T03:22:56;9.40;99.90
13898;DHT22;7019;50.766;4.474;2022-12-29T03:25:29;9.40;99.90
13898;DHT22;7019;50.766;4.474;2022-12-29T03:28:00;9.40;99.90
13898;DHT22;7019;50.766;4.474;2022-12-29T03:30:29;9.50;99.90
13898;DHT22;7019;50.766;4.474;2022-12-29T03:33:01;9.60;99.90
13898;DHT22;7019;50.766;4.474;2022-12-29T03:35:33;9.60;99.90
13898;DHT22;7019;50.766;4.474;2022-12-29T03:38:06;9.60;99.90
13898;DHT22;7019;50.766;4.474;2022-12-29T03:40:37;9.50;99.90
13898;DHT22;7019;50.766;4.474;2022-12-29T03:43:05;9.50;99.90
13898;DHT22;7019;50.766;4.474;2022-12-29T03:45:32;9.40;99.90
13898;DHT22;7019;50.766;4.474;2022-12-29T03:47:59;9.30;99.90
13898;DHT22;7019;50.766;4.474;2022-12-29T03:50:26;9.30;99.90
13898;DHT22;7019;50.766;4.474;2022-12-29T03:52:55;9.20;99.90
13898;DHT22;7019;50.766;4.474;2022-12-29T03:55:22;9.20;99.90
13898;DHT22;7019;50.766;4.474;2022-12-29T03:57:49;9.20;99.90
13898;DHT22;7019;50.766;4.474;2022-12-29T04:00:16;9.10;99.90
13898;DHT22;7019;50.766;4.474;2022-12-29T04:02:43;9.00;99.90
13898;DHT22;7019;50.766;4.474;2022-12-29T04:05:11;9.00;99.90
13898;DHT22;7019;50.766;4.474;2022-12-29T04:07:38;9.00;99.90
13898;DHT22;7019;50.766;4.474;2022-12-29T04:10:07;8.90;99.90
13898;DHT22;7019;50.766;4.474;2022-12-29T04:12:34;8.80;99.90
13898;DHT22;7019;50.766;4.474;2022-12-29T04:15:01;8.80;99.90
13898;DHT22;7019;50.766;4.474;2022-12-29T04:17:28;8.80;99.90
13898;DHT22;7019;50.766;4.474;2022-12-29T04:19:55;8.70;99.90
13898;DHT22;7019;50.766;4.474;2022-12-29T04:22:42;8.80;99.90
13898;DHT22;7019;50.766;4.474;2022-12-29T04:25:11;8.80;99.90
13898;DHT22;7019;50.766;4.474;2022-12-29T04:27:38;8.80;99.90
13898;DHT22;7019;50.766;4.474;2022-12-29T04:30:06;8.70;99.90
13898;DHT22;7019;50.766;4.474;2022-12-29T04:32:33;8.70;99.90
13898;DHT22;7019;50.766;4.474;2022-12-29T04:35:01;8.70;99.90
13898;DHT22;7019;50.766;4.474;2022-12-29T04:37:28;8.80;99.90
13898;DHT22;7019;50.766;4.474;2022-12-29T04:39:55;8.80;99.90
13898;DHT22;7019;50.766;4.474;2022-12-29T04:42:23;8.90;99.90
13898;DHT22;7019;50.766;4.474;2022-12-29T04:44:50;8.90;99.90
13898;DHT22;7019;50.766;4.474;2022-12-29T04:47:17;8.80;99.90
13898;DHT22;7019;50.766;4.474;2022-12-29T04:49:44;8.80;99.90
13898;DHT22;7019;50.766;4.474;2022-12-29T04:52:11;8.90;99.90
13898;DHT22;7019;50.766;4.474;2022-12-29T04:54:38;9.00;99.90
13898;DHT22;7019;50.766;4.474;2022-12-29T04:57:06;9.10;99.90
13898;DHT22;7019;50.766;4.474;2022-12-29T04:59:34;9.20;99.90
13898;DHT22;7019;50.766;4.474;2022-12-29T05:02:01;9.20;99.90
13898;DHT22;7019;50.766;4.474;2022-12-29T05:04:28;9.20;99.90
13898;DHT22;7019;50.766;4.474;2022-12-29T05:06:55;9.20;99.90
13898;DHT22;7019;50.766;4.474;2022-12-29T05:09:22;9.30;99.90
13898;DHT22;7019;50.766;4.474;2022-12-29T05:11:50;9.30;99.90
13898;DHT22;7019;50.766;4.474;2022-12-29T05:14:17;9.40;99.90
13898;DHT22;7019;50.766;4.474;2022-12-29T05:16:46;9.40;99.90
13898;DHT22;7019;50.766;4.474;2022-12-29T05:19:13;9.40;99.90
13898;DHT22;7019;50.766;4.474;2022-12-29T05:21:40;9.40;99.90
13898;DHT22;7019;50.766;4.474;2022-12-29T05:24:07;9.40;99.90
13898;DHT22;7019;50.766;4.474;2022-12-29T05:26:34;9.40;99.90
13898;DHT22;7019;50.766;4.474;2022-12-29T05:29:02;9.50;99.90
13898;DHT22;7019;50.766;4.474;2022-12-29T05:31:29;9.40;99.90
13898;DHT22;7019;50.766;4.474;2022-12-29T05:33:57;9.40;99.90
13898;DHT22;7019;50.766;4.474;2022-12-29T05:36:25;9.40;99.90
13898;DHT22;7019;50.766;4.474;2022-12-29T05:38:52;9.40;99.90
13898;DHT22;7019;50.766;4.474;2022-12-29T05:41:19;9.40;99.90
13898;DHT22;7019;50.766;4.474;2022-12-29T05:43:46;9.50;99.90
13898;DHT22;7019;50.766;4.474;2022-12-29T05:46:13;9.50;99.90
13898;DHT22;7019;50.766;4.474;2022-12-29T05:48:40;9.40;99.90
13898;DHT22;7019;50.766;4.474;2022-12-29T05:51:09;9.40;99.90
13898;DHT22;7019;50.766;4.474;2022-12-29T05:53:36;9.50;99.90
13898;DHT22;7019;50.766;4.474;2022-12-29T05:56:03;9.40;99.90
13898;DHT22;7019;50.766;4.474;2022-12-29T05:58:30;9.30;99.90
13898;DHT22;7019;50.766;4.474;2022-12-29T06:00:57;9.20;99.90
13898;DHT22;7019;50.766;4.474;2022-12-29T06:03:24;9.30;99.90
13898;DHT22;7019;50.766;4.474;2022-12-29T06:05:51;9.20;99.90
13898;DHT22;7019;50.766;4.474;2022-12-29T06:08:20;9.20;99.90
13898;DHT22;7019;50.766;4.474;2022-12-29T06:10:47;9.20;99.90
13898;DHT22;7019;50.766;4.474;2022-12-29T06:13:14;9.20;99.90
13898;DHT22;7019;50.766;4.474;2022-12-29T06:15:41;9.20;99.90
13898;DHT22;7019;50.766;4.474;2022-12-29T06:18:08;9.20;99.90
13898;DHT22;7019;50.766;4.474;2022-12-29T06:20:35;9.30;99.90
13898;DHT22;7019;50.766;4.474;2022-12-29T06:23:02;9.30;99.90
13898;DHT22;7019;50.766;4.474;2022-12-29T06:25:31;9.30;99.90
13898;DHT22;7019;50.766;4.474;2022-12-29T06:27:59;9.30;99.90
13898;DHT22;7019;50.766;4.474;2022-12-29T06:30:26;9.40;99.90
13898;DHT22;7019;50.766;4.474;2022-12-29T06:32:54;9.40;99.90
13898;DHT22;7019;50.766;4.474;2022-12-29T06:35:21;9.30;99.90
13898;DHT22;7019;50.766;4.474;2022-12-29T06:37:48;9.40;99.90
13898;DHT22;7019;50.766;4.474;2022-12-29T06:40:15;9.50;99.90
13898;DHT22;7019;50.766;4.474;2022-12-29T06:42:44;9.50;99.90
13898;DHT22;7019;50.766;4.474;2022-12-29T06:45:11;9.60;99.90
13898;DHT22;7019;50.766;4.474;2022-12-29T06:47:38;9.60;99.90
13898;DHT22;7019;50.766;4.474;2022-12-29T06:50:06;9.60;99.90
13898;DHT22;7019;50.766;4.474;2022-12-29T06:52:33;9.50;99.90
13898;DHT22;7019;50.766;4.474;2022-12-29T06:55:00;9.50;99.90
13898;DHT22;7019;50.766;4.474;2022-12-29T06:57:27;9.60;99.90
13898;DHT22;7019;50.766;4.474;2022-12-29T06:59:56;9.60;99.90
13898;DHT22;7019;50.766;4.474;2022-12-29T07:02:23;9.50;99.90
13898;DHT22;7019;50.766;4.474;2022-12-29T07:04:51;9.60;99.90
13898;DHT22;7019;50.766;4.474;2022-12-29T07:07:19;9.60;99.90
13898;DHT22;7019;50.766;4.474;2022-12-29T07:09:46;9.50;99.90
13898;DHT22;7019;50.766;4.474;2022-12-29T07:12:13;9.50;99.90
13898;DHT22;7019;50.766;4.474;2022-12-29T07:14:40;9.50;99.90
13898;DHT22;7019;50.766;4.474;2022-12-29T07:17:09;9.50;99.90
13898;DHT22;7019;50.766;4.474;2022-12-29T07:19:36;9.50;99.90
13898;DHT22;7019;50.766;4.474;2022-12-29T07:22:03;9.30;99.90
13898;DHT22;7019;50.766;4.474;2022-12-29T07:24:30;9.20;99.90
13898;DHT22;7019;50.766;4.474;2022-12-29T07:26:58;9.20;99.90
13898;DHT22;7019;50.766;4.474;2022-12-29T07:29:25;9.30;99.90
13898;DHT22;7019;50.766;4.474;2022-12-29T07:31:52;9.30;99.90
13898;DHT22;7019;50.766;4.474;2022-12-29T07:34:20;9.40;99.90
13898;DHT22;7019;50.766;4.474;2022-12-29T07:36:47;9.40;99.90
13898;DHT22;7019;50.766;4.474;2022-12-29T07:39:15;9.40;99.90
13898;DHT22;7019;50.766;4.474;2022-12-29T07:41:42;9.30;99.90
13898;DHT22;7019;50.766;4.474;2022-12-29T07:44:09;9.40;99.90
13898;DHT22;7019;50.766;4.474;2022-12-29T07:46:36;9.40;99.90
13898;DHT22;7019;50.766;4.474;2022-12-29T07:49:03;9.40;99.90
13898;DHT22;7019;50.766;4.474;2022-12-29T07:51:32;9.40;99.90
13898;DHT22;7019;50.766;4.474;2022-12-29T07:53:59;9.40;99.90
13898;DHT22;7019;50.766;4.474;2022-12-29T07:56:27;9.40;99.90
13898;DHT22;7019;50.766;4.474;2022-12-29T07:58:54;9.40;99.90
13898;DHT22;7019;50.766;4.474;2022-12-29T08:01:21;9.40;99.90
13898;DHT22;7019;50.766;4.474;2022-12-29T08:03:49;9.40;99.90
13898;DHT22;7019;50.766;4.474;2022-12-29T08:06:16;9.40;99.90
13898;DHT22;7019;50.766;4.474;2022-12-29T08:08:45;9.40;99.90
13898;DHT22;7019;50.766;4.474;2022-12-29T08:11:12;9.50;99.90
13898;DHT22;7019;50.766;4.474;2022-12-29T08:13:39;9.50;99.90
13898;DHT22;7019;50.766;4.474;2022-12-29T08:16:06;9.50;99.90
13898;DHT22;7019;50.766;4.474;2022-12-29T08:18:33;9.40;99.90
13898;DHT22;7019;50.766;4.474;2022-12-29T08:21:02;9.50;99.90
13898;DHT22;7019;50.766;4.474;2022-12-29T08:23:30;9.50;99.90
13898;DHT22;7019;50.766;4.474;2022-12-29T08:25:59;9.50;99.90
13898;DHT22;7019;50.766;4.474;2022-12-29T08:28:27;9.50;99.90
13898;DHT22;7019;50.766;4.474;2022-12-29T08:30:56;9.50;99.90
13898;DHT22;7019;50.766;4.474;2022-12-29T08:33:24;9.40;99.90
13898;DHT22;7019;50.766;4.474;2022-12-29T08:35:51;9.40;99.90
13898;DHT22;7019;50.766;4.474;2022-12-29T08:38:18;9.40;99.90
13898;DHT22;7019;50.766;4.474;2022-12-29T08:40:45;9.40;99.90
13898;DHT22;7019;50.766;4.474;2022-12-29T08:43:14;9.40;99.90
13898;DHT22;7019;50.766;4.474;2022-12-29T08:45:41;9.50;99.90
13898;DHT22;7019;50.766;4.474;2022-12-29T08:48:08;9.50;99.90
13898;DHT22;7019;50.766;4.474;2022-12-29T08:50:35;9.50;99.90
13898;DHT22;7019;50.766;4.474;2022-12-29T08:53:02;9.50;99.90
13898;DHT22;7019;50.766;4.474;2022-12-29T08:55:29;9.50;99.90
13898;DHT22;7019;50.766;4.474;2022-12-29T08:57:57;9.50;99.90
13898;DHT22;7019;50.766;4.474;2022-12-29T09:00:25;9.50;99.90
13898;DHT22;7019;50.766;4.474;2022-12-29T09:02:52;9.60;99.90
13898;DHT22;7019;50.766;4.474;2022-12-29T09:05:19;9.50;99.90
13898;DHT22;7019;50.766;4.474;2022-12-29T09:07:47;9.60;99.90
13898;DHT22;7019;50.766;4.474;2022-12-29T09:10:14;9.60;99.90
13898;DHT22;7019;50.766;4.474;2022-12-29T09:12:41;9.70;99.90
13898;DHT22;7019;50.766;4.474;2022-12-29T09:15:09;9.70;99.90
13898;DHT22;7019;50.766;4.474;2022-12-29T09:17:37;9.70;99.90
13898;DHT22;7019;50.766;4.474;2022-12-29T09:20:07;9.70;99.90
13898;DHT22;7019;50.766;4.474;2022-12-29T09:22:35;9.70;99.90
13898;DHT22;7019;50.766;4.474;2022-12-29T09:25:03;9.60;99.90
13898;DHT22;7019;50.766;4.474;2022-12-29T09:27:30;9.60;99.90
13898;DHT22;7019;50.766;4.474;2022-12-29T09:29:57;9.60;99.90
13898;DHT22;7019;50.766;4.474;2022-12-29T09:32:24;9.70;99.90
13898;DHT22;7019;50.766;4.474;2022-12-29T09:34:53;9.80;99.90
13898;DHT22;7019;50.766;4.474;2022-12-29T09:37:20;9.90;99.90
13898;DHT22;7019;50.766;4.474;2022-12-29T09:39:47;9.90;99.90
13898;DHT22;7019;50.766;4.474;2022-12-29T09:42:19;9.80;99.90
13898;DHT22;7019;50.766;4.474;2022-12-29T09:44:56;9.70;99.90
13898;DHT22;7019;50.766;4.474;2022-12-29T09:47:28;9.70;99.90
13898;DHT22;7019;50.766;4.474;2022-12-29T09:50:02;9.70;99.90
13898;DHT22;7019;50.766;4.474;2022-12-29T09:52:32;9.90;99.90
13898;DHT22;7019;50.766;4.474;2022-12-29T09:55:03;10.00;99.90
13898;DHT22;7019;50.766;4.474;2022-12-29T09:57:35;10.00;99.90
13898;DHT22;7019;50.766;4.474;2022-12-29T10:00:06;9.90;99.90
13898;DHT22;7019;50.766;4.474;2022-12-29T10:02:40;9.90;99.90
13898;DHT22;7019;50.766;4.474;2022-12-29T10:05:24;9.90;99.90
13898;DHT22;7019;50.766;4.474;2022-12-29T10:08:14;9.90;99.90
13898;DHT22;7019;50.766;4.474;2022-12-29T10:10:51;9.90;99.90
13898;DHT22;7019;50.766;4.474;2022-12-29T10:13:28;9.80;99.90
13898;DHT22;7019;50.766;4.474;2022-12-29T10:16:04;9.90;99.90
13898;DHT22;7019;50.766;4.474;2022-12-29T10:19:04;9.90;99.90
13898;DHT22;7019;50.766;4.474;2022-12-29T10:21:43;10.00;99.90
13898;DHT22;7019;50.766;4.474;2022-12-29T10:24:17;10.10;99.90
13898;DHT22;7019;50.766;4.474;2022-12-29T10:26:46;10.20;99.90
13898;DHT22;7019;50.766;4.474;2022-12-29T10:29:17;10.10;99.90
13898;DHT22;7019;50.766;4.474;2022-12-29T10:31:49;10.20;99.90
13898;DHT22;7019;50.766;4.474;2022-12-29T10:34:21;10.30;99.90
13898;DHT22;7019;50.766;4.474;2022-12-29T10:36:55;10.40;99.90
13898;DHT22;7019;50.766;4.474;2022-12-29T10:39:30;10.50;99.90
13898;DHT22;7019;50.766;4.474;2022-12-29T10:42:04;10.60;99.90
13898;DHT22;7019;50.766;4.474;2022-12-29T10:44:36;10.60;99.90
13898;DHT22;7019;50.766;4.474;2022-12-29T10:47:06;10.60;99.90
13898;DHT22;7019;50.766;4.474;2022-12-29T10:49:39;10.60;99.90
13898;DHT22;7019;50.766;4.474;2022-12-29T10:52:09;10.50;99.90
13898;DHT22;7019;50.766;4.474;2022-12-29T10:54:44;10.40;99.90
13898;DHT22;7019;50.766;4.474;2022-12-29T10:57:22;10.40;99.90
13898;DHT22;7019;50.766;4.474;2022-12-29T10:59:50;10.30;99.90
13898;DHT22;7019;50.766;4.474;2022-12-29T11:02:41;10.30;99.90
13898;DHT22;7019;50.766;4.474;2022-12-29T11:05:17;10.30;99.90
13898;DHT22;7019;50.766;4.474;2022-12-29T11:07:57;10.30;99.90
13898;DHT22;7019;50.766;4.474;2022-12-29T11:10:30;10.30;99.90
13898;DHT22;7019;50.766;4.474;2022-12-29T11:13:04;10.30;99.90
13898;DHT22;7019;50.766;4.474;2022-12-29T11:15:39;10.30;99.90
13898;DHT22;7019;50.766;4.474;2022-12-29T11:18:18;10.30;99.90
13898;DHT22;7019;50.766;4.474;2022-12-29T11:20:45;10.30;99.90
13898;DHT22;7019;50.766;4.474;2022-12-29T11:23:29;10.30;99.90
13898;DHT22;7019;50.766;4.474;2022-12-29T11:26:16;10.30;99.90
13898;DHT22;7019;50.766;4.474;2022-12-29T11:28:45;10.20;99.90
13898;DHT22;7019;50.766;4.474;2022-12-29T11:31:17;10.20;99.90
13898;DHT22;7019;50.766;4.474;2022-12-29T11:33:44;10.20;99.90
13898;DHT22;7019;50.766;4.474;2022-12-29T11:36:15;10.10;99.90
13898;DHT22;7019;50.766;4.474;2022-12-29T11:38:47;10.20;99.90
13898;DHT22;7019;50.766;4.474;2022-12-29T11:41:21;10.20;99.90
13898;DHT22;7019;50.766;4.474;2022-12-29T11:43:49;10.20;99.90
13898;DHT22;7019;50.766;4.474;2022-12-29T11:46:19;10.20;99.90
13898;DHT22;7019;50.766;4.474;2022-12-29T11:48:47;10.20;99.90
13898;DHT22;7019;50.766;4.474;2022-12-29T11:51:22;10.20;99.90
13898;DHT22;7019;50.766;4.474;2022-12-29T11:53:54;10.20;99.90
13898;DHT22;7019;50.766;4.474;2022-12-29T11:56:33;10.10;99.90
13898;DHT22;7019;50.766;4.474;2022-12-29T12:02:13;10.10;99.90
13898;DHT22;7019;50.766;4.474;2022-12-29T12:04:43;10.10;99.90
13898;DHT22;7019;50.766;4.474;2022-12-29T12:07:12;10.10;99.90
13898;DHT22;7019;50.766;4.474;2022-12-29T12:09:47;10.10;99.90
13898;DHT22;7019;50.766;4.474;2022-12-29T12:12:23;10.10;99.90
13898;DHT22;7019;50.766;4.474;2022-12-29T12:14:55;10.10;99.90
13898;DHT22;7019;50.766;4.474;2022-12-29T12:17:29;10.00;99.90
13898;DHT22;7019;50.766;4.474;2022-12-29T12:20:09;10.10;99.90
13898;DHT22;7019;50.766;4.474;2022-12-29T12:22:45;10.20;99.90
13898;DHT22;7019;50.766;4.474;2022-12-29T12:25:18;10.20;99.90
13898;DHT22;7019;50.766;4.474;2022-12-29T12:27:51;10.20;99.90
13898;DHT22;7019;50.766;4.474;2022-12-29T12:30:21;10.10;99.90
13898;DHT22;7019;50.766;4.474;2022-12-29T12:32:54;10.10;99.90
13898;DHT22;7019;50.766;4.474;2022-12-29T12:35:29;10.00;99.90
13898;DHT22;7019;50.766;4.474;2022-12-29T12:38:12;10.00;99.90
13898;DHT22;7019;50.766;4.474;2022-12-29T12:41:03;9.90;99.90
13898;DHT22;7019;50.766;4.474;2022-12-29T12:43:39;9.90;99.90
13898;DHT22;7019;50.766;4.474;2022-12-29T12:46:21;9.80;99.90
13898;DHT22;7019;50.766;4.474;2022-12-29T12:49:13;9.80;99.90
13898;DHT22;7019;50.766;4.474;2022-12-29T12:51:50;9.90;99.90
13898;DHT22;7019;50.766;4.474;2022-12-29T12:54:31;9.90;99.90
13898;DHT22;7019;50.766;4.474;2022-12-29T12:57:12;9.90;99.90
13898;DHT22;7019;50.766;4.474;2022-12-29T12:59:51;9.90;99.90
13898;DHT22;7019;50.766;4.474;2022-12-29T13:02:31;9.90;99.90
13898;DHT22;7019;50.766;4.474;2022-12-29T13:05:29;9.90;99.90
13898;DHT22;7019;50.766;4.474;2022-12-29T13:08:43;9.90;99.90
13898;DHT22;7019;50.766;4.474;2022-12-29T13:11:20;9.90;99.90
13898;DHT22;7019;50.766;4.474;2022-12-29T13:14:18;10.00;99.90
13898;DHT22;7019;50.766;4.474;2022-12-29T13:16:51;10.10;99.90
13898;DHT22;7019;50.766;4.474;2022-12-29T13:19:26;10.10;99.90
13898;DHT22;7019;50.766;4.474;2022-12-29T13:22:04;10.00;99.90
13898;DHT22;7019;50.766;4.474;2022-12-29T13:24:40;9.90;99.90
13898;DHT22;7019;50.766;4.474;2022-12-29T13:27:16;9.80;99.90
13898;DHT22;7019;50.766;4.474;2022-12-29T13:29:54;9.60;99.90
13898;DHT22;7019;50.766;4.474;2022-12-29T13:32:36;9.50;99.90
13898;DHT22;7019;50.766;4.474;2022-12-29T13:35:13;9.50;99.90
13898;DHT22;7019;50.766;4.474;2022-12-29T13:37:50;9.40;99.90
13898;DHT22;7019;50.766;4.474;2022-12-29T13:40:22;9.40;99.90
13898;DHT22;7019;50.766;4.474;2022-12-29T13:42:51;9.30;99.90
13898;DHT22;7019;50.766;4.474;2022-12-29T13:45:24;9.30;99.90
13898;DHT22;7019;50.766;4.474;2022-12-29T13:47:56;9.30;99.90
13898;DHT22;7019;50.766;4.474;2022-12-29T13:50:28;9.20;99.90
13898;DHT22;7019;50.766;4.474;2022-12-29T13:53:02;9.20;99.90
13898;DHT22;7019;50.766;4.474;2022-12-29T13:55:37;9.20;99.90
13898;DHT22;7019;50.766;4.474;2022-12-29T13:58:12;9.20;99.90
13898;DHT22;7019;50.766;4.474;2022-12-29T14:00:54;9.20;99.90
13898;DHT22;7019;50.766;4.474;2022-12-29T14:03:49;9.10;99.90
13898;DHT22;7019;50.766;4.474;2022-12-29T14:06:22;9.00;99.90
13898;DHT22;7019;50.766;4.474;2022-12-29T14:08:52;9.00;99.90
13898;DHT22;7019;50.766;4.474;2022-12-29T14:11:22;9.00;99.90
13898;DHT22;7019;50.766;4.474;2022-12-29T14:13:51;9.10;99.90
13898;DHT22;7019;50.766;4.474;2022-12-29T14:16:30;9.10;99.90
13898;DHT22;7019;50.766;4.474;2022-12-29T14:19:05;9.10;99.90
13898;DHT22;7019;50.766;4.474;2022-12-29T14:21:34;9.10;99.90
13898;DHT22;7019;50.766;4.474;2022-12-29T14:27:05;9.20;99.90
13898;DHT22;7019;50.766;4.474;2022-12-29T14:29:52;9.20;99.90
13898;DHT22;7019;50.766;4.474;2022-12-29T14:32:39;9.20;99.90
13898;DHT22;7019;50.766;4.474;2022-12-29T14:35:38;9.20;99.90
13898;DHT22;7019;50.766;4.474;2022-12-29T14:38:21;9.20;99.90
13898;DHT22;7019;50.766;4.474;2022-12-29T14:40:49;9.30;99.90
13898;DHT22;7019;50.766;4.474;2022-12-29T14:43:23;9.30;99.90
13898;DHT22;7019;50.766;4.474;2022-12-29T14:46:00;9.30;99.90
13898;DHT22;7019;50.766;4.474;2022-12-29T14:48:38;9.20;99.90
13898;DHT22;7019;50.766;4.474;2022-12-29T14:51:24;9.20;99.90
13898;DHT22;7019;50.766;4.474;2022-12-29T14:53:54;9.10;99.90
13898;DHT22;7019;50.766;4.474;2022-12-29T14:56:25;9.10;99.90
13898;DHT22;7019;50.766;4.474;2022-12-29T14:58:54;9.10;99.90
13898;DHT22;7019;50.766;4.474;2022-12-29T15:01:34;9.10;99.90
13898;DHT22;7019;50.766;4.474;2022-12-29T15:04:13;9.00;99.90
13898;DHT22;7019;50.766;4.474;2022-12-29T15:06:43;9.00;99.90
13898;DHT22;7019;50.766;4.474;2022-12-29T15:09:19;9.00;99.90
13898;DHT22;7019;50.766;4.474;2022-12-29T15:11:52;9.00;99.90
13898;DHT22;7019;50.766;4.474;2022-12-29T15:14:32;9.00;99.90
13898;DHT22;7019;50.766;4.474;2022-12-29T15:17:01;9.00;99.90
13898;DHT22;7019;50.766;4.474;2022-12-29T15:19:30;9.00;99.90
13898;DHT22;7019;50.766;4.474;2022-12-29T15:21:57;8.90;99.90
13898;DHT22;7019;50.766;4.474;2022-12-29T15:24:24;8.90;99.90
13898;DHT22;7019;50.766;4.474;2022-12-29T15:26:53;8.90;99.90
13898;DHT22;7019;50.766;4.474;2022-12-29T15:29:32;8.80;99.90
13898;DHT22;7019;50.766;4.474;2022-12-29T15:32:02;8.80;99.90
13898;DHT22;7019;50.766;4.474;2022-12-29T15:34:38;8.80;99.90
13898;DHT22;7019;50.766;4.474;2022-12-29T15:37:07;8.80;99.90
13898;DHT22;7019;50.766;4.474;2022-12-29T15:39:35;8.80;99.90
13898;DHT22;7019;50.766;4.474;2022-12-29T15:42:06;8.80;99.90
13898;DHT22;7019;50.766;4.474;2022-12-29T15:44:37;8.80;99.90
13898;DHT22;7019;50.766;4.474;2022-12-29T15:47:08;8.80;99.90
13898;DHT22;7019;50.766;4.474;2022-12-29T15:49:41;8.80;99.90
13898;DHT22;7019;50.766;4.474;2022-12-29T15:52:13;8.70;99.90
13898;DHT22;7019;50.766;4.474;2022-12-29T15:54:44;8.60;99.90
13898;DHT22;7019;50.766;4.474;2022-12-29T15:57:20;8.40;99.90
13898;DHT22;7019;50.766;4.474;2022-12-29T15:59:48;8.30;99.90
13898;DHT22;7019;50.766;4.474;2022-12-29T16:02:15;8.20;99.90
13898;DHT22;7019;50.766;4.474;2022-12-29T16:04:44;8.10;99.90
13898;DHT22;7019;50.766;4.474;2022-12-29T16:07:24;7.90;99.90
13898;DHT22;7019;50.766;4.474;2022-12-29T16:09:55;7.80;99.90
13898;DHT22;7019;50.766;4.474;2022-12-29T16:12:25;7.80;99.90
13898;DHT22;7019;50.766;4.474;2022-12-29T16:14:56;7.70;99.90
13898;DHT22;7019;50.766;4.474;2022-12-29T16:17:25;7.70;99.90
13898;DHT22;7019;50.766;4.474;2022-12-29T16:19:57;7.60;99.90
13898;DHT22;7019;50.766;4.474;2022-12-29T16:22:29;7.60;99.90
13898;DHT22;7019;50.766;4.474;2022-12-29T16:24:58;7.50;99.90
13898;DHT22;7019;50.766;4.474;2022-12-29T16:27:32;7.40;99.90
13898;DHT22;7019;50.766;4.474;2022-12-29T16:30:05;7.40;99.90
13898;DHT22;7019;50.766;4.474;2022-12-29T16:32:33;7.40;99.90
13898;DHT22;7019;50.766;4.474;2022-12-29T16:35:16;7.40;99.90
13898;DHT22;7019;50.766;4.474;2022-12-29T16:37:44;7.40;99.90